sensor_id;sensor_type;location;lat;lon;timestamp;P1;durP1;ratioP1;P2;durP2;ratioP2
28623;SDS011;15813;46.932;19.658;2023-06-22T00:01:45;12.80;;;4.63;;
28623;SDS011;15813;46.932;19.658;2023-06-22T00:04:10;12.43;;;4.13;;
28623;SDS011;15813;46.932;19.658;2023-06-22T00:06:35;14.73;;;4.20;;
28623;SDS011;15813;46.932;19.658;2023-06-22T00:09:01;11.03;;;3.87;;
28623;SDS011;15813;46.932;19.658;2023-06-22T00:11:26;16.03;;;4.53;;
28623;SDS011;15813;46.932;19.658;2023-06-22T00:13:52;12.27;;;3.60;;
28623;SDS011;15813;46.932;19.658;2023-06-22T00:16:18;18.27;;;3.75;;
28623;SDS011;15813;46.932;19.658;2023-06-22T00:18:43;13.47;;;4.13;;
28623;SDS011;15813;46.932;19.658;2023-06-22T00:21:12;14.68;;;4.32;;
28623;SDS011;15813;46.932;19.658;2023-06-22T00:23:37;17.15;;;4.63;;
28623;SDS011;15813;46.932;19.658;2023-06-22T00:26:02;14.90;;;3.58;;
28623;SDS011;15813;46.932;19.658;2023-06-22T00:28:28;17.57;;;4.63;;
28623;SDS011;15813;46.932;19.658;2023-06-22T00:30:54;15.82;;;4.10;;
28623;SDS011;15813;46.932;19.658;2023-06-22T00:33:19;16.77;;;4.30;;
28623;SDS011;15813;46.932;19.658;2023-06-22T00:35:44;15.50;;;4.60;;
28623;SDS011;15813;46.932;19.658;2023-06-22T00:38:09;13.55;;;4.10;;
28623;SDS011;15813;46.932;19.658;2023-06-22T00:40:35;18.83;;;4.78;;
28623;SDS011;15813;46.932;19.658;2023-06-22T00:43:00;15.50;;;4.45;;
28623;SDS011;15813;46.932;19.658;2023-06-22T00:45:26;16.05;;;4.55;;
28623;SDS011;15813;46.932;19.658;2023-06-22T00:47:52;13.88;;;4.32;;
28623;SDS011;15813;46.932;19.658;2023-06-22T00:50:18;19.20;;;4.63;;
28623;SDS011;15813;46.932;19.658;2023-06-22T00:52:45;14.18;;;5.03;;
28623;SDS011;15813;46.932;19.658;2023-06-22T00:55:11;14.57;;;4.30;;
28623;SDS011;15813;46.932;19.658;2023-06-22T00:57:36;18.23;;;5.37;;
28623;SDS011;15813;46.932;19.658;2023-06-22T01:00:02;22.58;;;4.65;;
28623;SDS011;15813;46.932;19.658;2023-06-22T01:02:38;13.32;;;4.50;;
28623;SDS011;15813;46.932;19.658;2023-06-22T01:05:04;14.60;;;5.72;;
28623;SDS011;15813;46.932;19.658;2023-06-22T01:12:27;19.33;;;5.55;;
28623;SDS011;15813;46.932;19.658;2023-06-22T01:14:58;19.27;;;4.83;;
28623;SDS011;15813;46.932;19.658;2023-06-22T01:17:27;12.07;;;5.35;;
28623;SDS011;15813;46.932;19.658;2023-06-22T01:19:54;15.35;;;4.70;;
28623;SDS011;15813;46.932;19.658;2023-06-22T01:22:22;14.77;;;5.80;;
28623;SDS011;15813;46.932;19.658;2023-06-22T01:30:17;13.93;;;5.60;;
28623;SDS011;15813;46.932;19.658;2023-06-22T01:32:43;12.52;;;4.63;;
28623;SDS011;15813;46.932;19.658;2023-06-22T01:35:09;15.63;;;4.53;;
28623;SDS011;15813;46.932;19.658;2023-06-22T01:37:35;14.05;;;4.93;;
28623;SDS011;15813;46.932;19.658;2023-06-22T01:40:02;15.63;;;5.53;;
28623;SDS011;15813;46.932;19.658;2023-06-22T01:42:30;18.10;;;4.57;;
28623;SDS011;15813;46.932;19.658;2023-06-22T01:44:55;13.77;;;5.18;;
28623;SDS011;15813;46.932;19.658;2023-06-22T01:47:21;19.90;;;5.75;;
28623;SDS011;15813;46.932;19.658;2023-06-22T01:49:47;14.40;;;4.93;;
28623;SDS011;15813;46.932;19.658;2023-06-22T01:52:12;14.80;;;7.43;;
28623;SDS011;15813;46.932;19.658;2023-06-22T01:54:39;14.45;;;5.47;;
28623;SDS011;15813;46.932;19.658;2023-06-22T01:57:04;16.88;;;5.18;;
28623;SDS011;15813;46.932;19.658;2023-06-22T01:59:34;16.73;;;7.03;;
28623;SDS011;15813;46.932;19.658;2023-06-22T02:02:04;9.65;;;4.00;;
28623;SDS011;15813;46.932;19.658;2023-06-22T02:07:19;15.57;;;6.50;;
28623;SDS011;15813;46.932;19.658;2023-06-22T02:09:46;10.88;;;5.03;;
28623;SDS011;15813;46.932;19.658;2023-06-22T02:12:13;13.20;;;4.80;;
28623;SDS011;15813;46.932;19.658;2023-06-22T02:14:42;14.13;;;5.07;;
28623;SDS011;15813;46.932;19.658;2023-06-22T02:17:08;13.23;;;4.63;;
28623;SDS011;15813;46.932;19.658;2023-06-22T02:19:37;12.75;;;4.88;;
28623;SDS011;15813;46.932;19.658;2023-06-22T02:22:03;9.63;;;5.53;;
28623;SDS011;15813;46.932;19.658;2023-06-22T02:24:28;12.68;;;4.95;;
28623;SDS011;15813;46.932;19.658;2023-06-22T02:26:56;19.98;;;4.55;;
28623;SDS011;15813;46.932;19.658;2023-06-22T02:29:22;13.57;;;4.80;;
28623;SDS011;15813;46.932;19.658;2023-06-22T02:31:47;12.27;;;5.17;;
28623;SDS011;15813;46.932;19.658;2023-06-22T02:34:13;13.23;;;5.35;;
28623;SDS011;15813;46.932;19.658;2023-06-22T02:36:43;16.67;;;5.30;;
28623;SDS011;15813;46.932;19.658;2023-06-22T02:39:15;13.52;;;4.65;;
28623;SDS011;15813;46.932;19.658;2023-06-22T02:41:41;15.10;;;6.00;;
28623;SDS011;15813;46.932;19.658;2023-06-22T02:44:06;14.07;;;5.47;;
28623;SDS011;15813;46.932;19.658;2023-06-22T02:46:31;17.37;;;6.27;;
28623;SDS011;15813;46.932;19.658;2023-06-22T02:48:56;14.15;;;5.82;;
28623;SDS011;15813;46.932;19.658;2023-06-22T02:51:22;16.17;;;7.43;;
28623;SDS011;15813;46.932;19.658;2023-06-22T02:53:47;14.45;;;6.20;;
28623;SDS011;15813;46.932;19.658;2023-06-22T02:56:13;15.90;;;6.03;;
28623;SDS011;15813;46.932;19.658;2023-06-22T02:58:38;10.07;;;5.13;;
28623;SDS011;15813;46.932;19.658;2023-06-22T03:01:04;19.38;;;6.40;;
28623;SDS011;15813;46.932;19.658;2023-06-22T03:03:30;9.95;;;5.30;;
28623;SDS011;15813;46.932;19.658;2023-06-22T03:05:55;15.55;;;5.72;;
28623;SDS011;15813;46.932;19.658;2023-06-22T03:08:20;17.53;;;7.30;;
28623;SDS011;15813;46.932;19.658;2023-06-22T03:10:46;17.57;;;7.07;;
28623;SDS011;15813;46.932;19.658;2023-06-22T03:13:11;20.80;;;8.77;;
28623;SDS011;15813;46.932;19.658;2023-06-22T03:15:36;16.33;;;7.53;;
28623;SDS011;15813;46.932;19.658;2023-06-22T03:18:01;24.17;;;7.60;;
28623;SDS011;15813;46.932;19.658;2023-06-22T03:20:27;18.67;;;7.20;;
28623;SDS011;15813;46.932;19.658;2023-06-22T03:22:55;17.38;;;7.47;;
28623;SDS011;15813;46.932;19.658;2023-06-22T03:25:20;18.87;;;7.63;;
28623;SDS011;15813;46.932;19.658;2023-06-22T03:27:45;19.23;;;6.63;;
28623;SDS011;15813;46.932;19.658;2023-06-22T03:30:11;17.73;;;7.17;;
28623;SDS011;15813;46.932;19.658;2023-06-22T03:32:36;14.30;;;6.28;;
28623;SDS011;15813;46.932;19.658;2023-06-22T03:35:02;22.83;;;6.55;;
28623;SDS011;15813;46.932;19.658;2023-06-22T03:37:28;20.17;;;7.20;;
28623;SDS011;15813;46.932;19.658;2023-06-22T03:39:53;23.98;;;7.00;;
28623;SDS011;15813;46.932;19.658;2023-06-22T03:42:19;24.60;;;6.63;;
28623;SDS011;15813;46.932;19.658;2023-06-22T03:44:44;23.55;;;7.13;;
28623;SDS011;15813;46.932;19.658;2023-06-22T03:47:09;13.63;;;6.70;;
28623;SDS011;15813;46.932;19.658;2023-06-22T03:49:34;17.88;;;7.32;;
28623;SDS011;15813;46.932;19.658;2023-06-22T03:52:00;19.23;;;8.25;;
28623;SDS011;15813;46.932;19.658;2023-06-22T03:54:27;18.98;;;7.57;;
28623;SDS011;15813;46.932;19.658;2023-06-22T03:56:53;20.77;;;7.25;;
28623;SDS011;15813;46.932;19.658;2023-06-22T03:59:18;16.63;;;6.47;;
28623;SDS011;15813;46.932;19.658;2023-06-22T04:01:43;30.73;;;10.85;;
28623;SDS011;15813;46.932;19.658;2023-06-22T04:04:09;38.38;;;31.27;;
28623;SDS011;15813;46.932;19.658;2023-06-22T04:06:34;17.73;;;7.03;;
28623;SDS011;15813;46.932;19.658;2023-06-22T04:09:00;19.52;;;7.35;;
28623;SDS011;15813;46.932;19.658;2023-06-22T04:11:25;22.27;;;7.53;;
28623;SDS011;15813;46.932;19.658;2023-06-22T04:13:51;31.50;;;10.33;;
28623;SDS011;15813;46.932;19.658;2023-06-22T04:16:16;24.25;;;8.27;;
28623;SDS011;15813;46.932;19.658;2023-06-22T04:18:41;30.58;;;9.30;;
28623;SDS011;15813;46.932;19.658;2023-06-22T04:21:07;17.92;;;9.27;;
28623;SDS011;15813;46.932;19.658;2023-06-22T04:23:32;21.23;;;12.35;;
28623;SDS011;15813;46.932;19.658;2023-06-22T04:25:57;13.67;;;9.27;;
28623;SDS011;15813;46.932;19.658;2023-06-22T04:28:24;16.60;;;8.98;;
28623;SDS011;15813;46.932;19.658;2023-06-22T04:30:49;21.95;;;9.90;;
28623;SDS011;15813;46.932;19.658;2023-06-22T04:33:16;21.05;;;9.20;;
28623;SDS011;15813;46.932;19.658;2023-06-22T04:35:41;21.27;;;9.88;;
28623;SDS011;15813;46.932;19.658;2023-06-22T04:38:07;17.73;;;9.68;;
28623;SDS011;15813;46.932;19.658;2023-06-22T04:40:33;18.15;;;8.75;;
28623;SDS011;15813;46.932;19.658;2023-06-22T04:42:58;17.85;;;8.13;;
28623;SDS011;15813;46.932;19.658;2023-06-22T04:45:27;21.38;;;8.43;;
28623;SDS011;15813;46.932;19.658;2023-06-22T04:47:52;18.67;;;8.73;;
28623;SDS011;15813;46.932;19.658;2023-06-22T04:50:17;16.77;;;7.75;;
28623;SDS011;15813;46.932;19.658;2023-06-22T04:52:46;16.75;;;9.38;;
28623;SDS011;15813;46.932;19.658;2023-06-22T04:55:11;17.05;;;8.63;;
28623;SDS011;15813;46.932;19.658;2023-06-22T04:57:36;33.63;;;9.70;;
28623;SDS011;15813;46.932;19.658;2023-06-22T05:00:04;16.83;;;7.43;;
28623;SDS011;15813;46.932;19.658;2023-06-22T05:02:42;16.13;;;7.63;;
28623;SDS011;15813;46.932;19.658;2023-06-22T05:05:08;19.73;;;8.00;;
28623;SDS011;15813;46.932;19.658;2023-06-22T05:07:33;22.75;;;10.15;;
28623;SDS011;15813;46.932;19.658;2023-06-22T05:09:59;23.58;;;8.77;;
28623;SDS011;15813;46.932;19.658;2023-06-22T05:12:24;20.52;;;9.65;;
28623;SDS011;15813;46.932;19.658;2023-06-22T05:14:49;25.20;;;7.65;;
28623;SDS011;15813;46.932;19.658;2023-06-22T05:17:15;13.30;;;7.07;;
28623;SDS011;15813;46.932;19.658;2023-06-22T05:19:43;19.10;;;9.85;;
28623;SDS011;15813;46.932;19.658;2023-06-22T05:22:14;22.15;;;9.00;;
28623;SDS011;15813;46.932;19.658;2023-06-22T05:24:40;19.50;;;8.25;;
28623;SDS011;15813;46.932;19.658;2023-06-22T05:27:05;24.10;;;11.10;;
28623;SDS011;15813;46.932;19.658;2023-06-22T05:29:31;16.65;;;8.85;;
28623;SDS011;15813;46.932;19.658;2023-06-22T05:31:56;23.77;;;15.60;;
28623;SDS011;15813;46.932;19.658;2023-06-22T05:34:21;22.47;;;12.67;;
28623;SDS011;15813;46.932;19.658;2023-06-22T05:36:46;42.67;;;38.13;;
28623;SDS011;15813;46.932;19.658;2023-06-22T05:39:12;27.38;;;22.45;;
28623;SDS011;15813;46.932;19.658;2023-06-22T05:41:38;24.65;;;10.82;;
28623;SDS011;15813;46.932;19.658;2023-06-22T05:44:04;39.90;;;29.13;;
28623;SDS011;15813;46.932;19.658;2023-06-22T05:46:29;23.23;;;15.23;;
28623;SDS011;15813;46.932;19.658;2023-06-22T05:48:54;29.75;;;17.00;;
28623;SDS011;15813;46.932;19.658;2023-06-22T05:51:19;26.40;;;18.80;;
28623;SDS011;15813;46.932;19.658;2023-06-22T05:53:45;27.90;;;25.08;;
28623;SDS011;15813;46.932;19.658;2023-06-22T05:56:14;34.63;;;31.02;;
28623;SDS011;15813;46.932;19.658;2023-06-22T05:58:39;28.38;;;19.00;;
28623;SDS011;15813;46.932;19.658;2023-06-22T06:01:05;31.17;;;13.93;;
28623;SDS011;15813;46.932;19.658;2023-06-22T06:03:30;37.60;;;33.77;;
28623;SDS011;15813;46.932;19.658;2023-06-22T06:05:55;183.90;;;169.90;;
28623;SDS011;15813;46.932;19.658;2023-06-22T06:08:21;219.00;;;202.45;;
28623;SDS011;15813;46.932;19.658;2023-06-22T06:10:46;36.70;;;30.83;;
28623;SDS011;15813;46.932;19.658;2023-06-22T06:13:12;90.95;;;83.25;;
28623;SDS011;15813;46.932;19.658;2023-06-22T06:15:37;13.82;;;6.13;;
28623;SDS011;15813;46.932;19.658;2023-06-22T06:18:03;28.73;;;6.32;;
28623;SDS011;15813;46.932;19.658;2023-06-22T06:20:30;17.95;;;6.25;;
28623;SDS011;15813;46.932;19.658;2023-06-22T06:22:55;16.48;;;6.43;;
28623;SDS011;15813;46.932;19.658;2023-06-22T06:25:21;16.88;;;4.28;;
28623;SDS011;15813;46.932;19.658;2023-06-22T06:27:47;13.20;;;4.63;;
28623;SDS011;15813;46.932;19.658;2023-06-22T06:30:13;12.43;;;4.15;;
28623;SDS011;15813;46.932;19.658;2023-06-22T06:32:38;13.88;;;4.53;;
28623;SDS011;15813;46.932;19.658;2023-06-22T06:35:07;13.65;;;4.47;;
28623;SDS011;15813;46.932;19.658;2023-06-22T06:37:38;11.15;;;3.80;;
28623;SDS011;15813;46.932;19.658;2023-06-22T06:40:04;17.95;;;5.10;;
28623;SDS011;15813;46.932;19.658;2023-06-22T06:42:42;11.27;;;4.50;;
28623;SDS011;15813;46.932;19.658;2023-06-22T06:45:14;9.95;;;3.67;;
28623;SDS011;15813;46.932;19.658;2023-06-22T06:47:40;11.30;;;3.40;;
28623;SDS011;15813;46.932;19.658;2023-06-22T06:50:05;7.50;;;3.90;;
28623;SDS011;15813;46.932;19.658;2023-06-22T06:52:31;12.13;;;4.03;;
28623;SDS011;15813;46.932;19.658;2023-06-22T06:54:57;12.35;;;4.13;;
28623;SDS011;15813;46.932;19.658;2023-06-22T06:57:22;14.73;;;4.13;;
28623;SDS011;15813;46.932;19.658;2023-06-22T06:59:48;12.80;;;3.80;;
28623;SDS011;15813;46.932;19.658;2023-06-22T07:02:14;15.65;;;4.60;;
28623;SDS011;15813;46.932;19.658;2023-06-22T07:04:39;10.15;;;3.55;;
28623;SDS011;15813;46.932;19.658;2023-06-22T07:07:05;11.67;;;4.00;;
28623;SDS011;15813;46.932;19.658;2023-06-22T07:09:30;12.57;;;3.92;;
28623;SDS011;15813;46.932;19.658;2023-06-22T07:11:56;15.83;;;4.30;;
28623;SDS011;15813;46.932;19.658;2023-06-22T07:14:21;16.07;;;4.27;;
28623;SDS011;15813;46.932;19.658;2023-06-22T07:16:46;14.93;;;4.40;;
28623;SDS011;15813;46.932;19.658;2023-06-22T07:19:12;9.27;;;3.80;;
28623;SDS011;15813;46.932;19.658;2023-06-22T07:21:38;10.80;;;4.28;;
28623;SDS011;15813;46.932;19.658;2023-06-22T07:24:04;7.85;;;3.15;;
28623;SDS011;15813;46.932;19.658;2023-06-22T07:26:30;13.07;;;3.60;;
28623;SDS011;15813;46.932;19.658;2023-06-22T07:28:56;6.07;;;3.23;;
28623;SDS011;15813;46.932;19.658;2023-06-22T07:31:21;24.27;;;4.33;;
28623;SDS011;15813;46.932;19.658;2023-06-22T07:33:47;6.85;;;3.20;;
28623;SDS011;15813;46.932;19.658;2023-06-22T07:36:13;8.40;;;3.67;;
28623;SDS011;15813;46.932;19.658;2023-06-22T07:38:38;7.82;;;3.63;;
28623;SDS011;15813;46.932;19.658;2023-06-22T07:41:03;6.03;;;3.70;;
28623;SDS011;15813;46.932;19.658;2023-06-22T07:43:30;8.60;;;4.32;;
28623;SDS011;15813;46.932;19.658;2023-06-22T07:45:58;15.02;;;4.40;;
28623;SDS011;15813;46.932;19.658;2023-06-22T07:48:23;8.07;;;3.83;;
28623;SDS011;15813;46.932;19.658;2023-06-22T07:50:49;11.57;;;4.18;;
28623;SDS011;15813;46.932;19.658;2023-06-22T07:53:14;12.98;;;3.95;;
28623;SDS011;15813;46.932;19.658;2023-06-22T07:55:39;9.82;;;3.60;;
28623;SDS011;15813;46.932;19.658;2023-06-22T07:58:05;5.97;;;3.50;;
28623;SDS011;15813;46.932;19.658;2023-06-22T08:00:30;10.97;;;4.67;;
28623;SDS011;15813;46.932;19.658;2023-06-22T08:02:55;8.73;;;3.88;;
28623;SDS011;15813;46.932;19.658;2023-06-22T08:05:21;10.05;;;4.20;;
28623;SDS011;15813;46.932;19.658;2023-06-22T08:07:46;10.50;;;3.72;;
28623;SDS011;15813;46.932;19.658;2023-06-22T08:10:12;7.97;;;3.47;;
28623;SDS011;15813;46.932;19.658;2023-06-22T08:12:38;8.15;;;3.40;;
28623;SDS011;15813;46.932;19.658;2023-06-22T08:15:03;14.70;;;3.60;;
28623;SDS011;15813;46.932;19.658;2023-06-22T08:17:28;14.38;;;3.90;;
28623;SDS011;15813;46.932;19.658;2023-06-22T08:19:54;9.07;;;3.50;;
28623;SDS011;15813;46.932;19.658;2023-06-22T08:22:19;11.52;;;3.65;;
28623;SDS011;15813;46.932;19.658;2023-06-22T08:24:44;9.87;;;3.43;;
28623;SDS011;15813;46.932;19.658;2023-06-22T08:27:10;15.97;;;4.00;;
28623;SDS011;15813;46.932;19.658;2023-06-22T08:29:36;12.40;;;3.47;;
28623;SDS011;15813;46.932;19.658;2023-06-22T08:32:02;9.35;;;3.38;;
28623;SDS011;15813;46.932;19.658;2023-06-22T08:34:27;7.88;;;3.55;;
28623;SDS011;15813;46.932;19.658;2023-06-22T08:36:53;10.40;;;3.30;;
28623;SDS011;15813;46.932;19.658;2023-06-22T08:39:19;7.72;;;3.13;;
28623;SDS011;15813;46.932;19.658;2023-06-22T08:41:45;10.93;;;3.17;;
28623;SDS011;15813;46.932;19.658;2023-06-22T08:44:10;9.02;;;3.47;;
28623;SDS011;15813;46.932;19.658;2023-06-22T08:46:35;9.85;;;3.42;;
28623;SDS011;15813;46.932;19.658;2023-06-22T08:49:01;12.48;;;4.25;;
28623;SDS011;15813;46.932;19.658;2023-06-22T08:51:27;9.30;;;3.90;;
28623;SDS011;15813;46.932;19.658;2023-06-22T08:53:52;14.75;;;4.05;;
28623;SDS011;15813;46.932;19.658;2023-06-22T08:56:17;13.50;;;4.63;;
28623;SDS011;15813;46.932;19.658;2023-06-22T08:58:43;12.52;;;4.20;;
28623;SDS011;15813;46.932;19.658;2023-06-22T09:01:09;8.60;;;4.00;;
28623;SDS011;15813;46.932;19.658;2023-06-22T09:03:34;7.10;;;3.73;;
28623;SDS011;15813;46.932;19.658;2023-06-22T09:06:01;8.10;;;3.20;;
28623;SDS011;15813;46.932;19.658;2023-06-22T09:08:26;14.63;;;4.03;;
28623;SDS011;15813;46.932;19.658;2023-06-22T09:10:52;14.20;;;4.90;;
28623;SDS011;15813;46.932;19.658;2023-06-22T09:13:17;11.55;;;4.40;;
28623;SDS011;15813;46.932;19.658;2023-06-22T09:15:43;9.82;;;3.70;;
28623;SDS011;15813;46.932;19.658;2023-06-22T09:18:10;10.80;;;3.93;;
28623;SDS011;15813;46.932;19.658;2023-06-22T09:20:35;7.97;;;4.07;;
28623;SDS011;15813;46.932;19.658;2023-06-22T09:23:00;10.37;;;4.00;;
28623;SDS011;15813;46.932;19.658;2023-06-22T09:25:26;8.38;;;4.18;;
28623;SDS011;15813;46.932;19.658;2023-06-22T09:27:51;10.53;;;4.33;;
28623;SDS011;15813;46.932;19.658;2023-06-22T09:30:16;6.28;;;3.65;;
28623;SDS011;15813;46.932;19.658;2023-06-22T09:32:42;7.83;;;4.63;;
28623;SDS011;15813;46.932;19.658;2023-06-22T09:35:08;9.40;;;4.55;;
28623;SDS011;15813;46.932;19.658;2023-06-22T09:37:34;11.43;;;4.18;;
28623;SDS011;15813;46.932;19.658;2023-06-22T09:40:00;15.27;;;4.15;;
28623;SDS011;15813;46.932;19.658;2023-06-22T09:42:25;9.40;;;4.60;;
28623;SDS011;15813;46.932;19.658;2023-06-22T09:44:50;11.33;;;5.13;;
28623;SDS011;15813;46.932;19.658;2023-06-22T09:47:16;11.27;;;5.50;;
28623;SDS011;15813;46.932;19.658;2023-06-22T09:49:41;13.20;;;4.93;;
28623;SDS011;15813;46.932;19.658;2023-06-22T09:52:06;10.67;;;4.93;;
28623;SDS011;15813;46.932;19.658;2023-06-22T09:54:32;13.00;;;4.65;;
28623;SDS011;15813;46.932;19.658;2023-06-22T09:56:57;9.20;;;5.07;;
28623;SDS011;15813;46.932;19.658;2023-06-22T09:59:22;15.80;;;5.20;;
28623;SDS011;15813;46.932;19.658;2023-06-22T10:01:47;13.00;;;4.70;;
28623;SDS011;15813;46.932;19.658;2023-06-22T10:04:13;14.33;;;5.20;;
28623;SDS011;15813;46.932;19.658;2023-06-22T10:06:38;11.60;;;5.18;;
28623;SDS011;15813;46.932;19.658;2023-06-22T10:09:05;12.60;;;6.38;;
28623;SDS011;15813;46.932;19.658;2023-06-22T10:11:31;11.02;;;5.93;;
28623;SDS011;15813;46.932;19.658;2023-06-22T10:13:56;12.65;;;6.10;;
28623;SDS011;15813;46.932;19.658;2023-06-22T10:16:23;9.30;;;5.50;;
28623;SDS011;15813;46.932;19.658;2023-06-22T10:18:48;13.88;;;6.05;;
28623;SDS011;15813;46.932;19.658;2023-06-22T10:21:14;11.83;;;6.17;;
28623;SDS011;15813;46.932;19.658;2023-06-22T10:23:39;13.75;;;6.05;;
28623;SDS011;15813;46.932;19.658;2023-06-22T10:26:04;7.20;;;5.60;;
28623;SDS011;15813;46.932;19.658;2023-06-22T10:28:30;7.77;;;5.83;;
28623;SDS011;15813;46.932;19.658;2023-06-22T10:30:55;8.77;;;5.40;;
28623;SDS011;15813;46.932;19.658;2023-06-22T10:33:20;8.57;;;6.20;;
28623;SDS011;15813;46.932;19.658;2023-06-22T10:35:45;12.25;;;5.95;;
28623;SDS011;15813;46.932;19.658;2023-06-22T10:38:11;10.23;;;6.47;;
28623;SDS011;15813;46.932;19.658;2023-06-22T10:40:36;9.63;;;5.83;;
28623;SDS011;15813;46.932;19.658;2023-06-22T10:43:01;10.80;;;6.07;;
28623;SDS011;15813;46.932;19.658;2023-06-22T10:45:26;7.27;;;5.83;;
28623;SDS011;15813;46.932;19.658;2023-06-22T10:47:52;27.38;;;6.57;;
28623;SDS011;15813;46.932;19.658;2023-06-22T10:50:18;12.10;;;5.88;;
28623;SDS011;15813;46.932;19.658;2023-06-22T10:52:43;12.47;;;6.53;;
28623;SDS011;15813;46.932;19.658;2023-06-22T10:55:09;9.87;;;5.77;;
28623;SDS011;15813;46.932;19.658;2023-06-22T10:57:34;12.50;;;5.72;;
28623;SDS011;15813;46.932;19.658;2023-06-22T10:59:59;10.55;;;6.53;;
28623;SDS011;15813;46.932;19.658;2023-06-22T11:02:25;9.13;;;6.20;;
28623;SDS011;15813;46.932;19.658;2023-06-22T11:04:50;10.85;;;6.15;;
28623;SDS011;15813;46.932;19.658;2023-06-22T11:07:16;6.55;;;5.95;;
28623;SDS011;15813;46.932;19.658;2023-06-22T11:09:43;8.18;;;6.03;;
28623;SDS011;15813;46.932;19.658;2023-06-22T11:12:08;10.48;;;6.60;;
28623;SDS011;15813;46.932;19.658;2023-06-22T11:14:33;9.23;;;6.25;;
28623;SDS011;15813;46.932;19.658;2023-06-22T11:16:59;10.97;;;6.47;;
28623;SDS011;15813;46.932;19.658;2023-06-22T11:19:24;10.27;;;6.28;;
28623;SDS011;15813;46.932;19.658;2023-06-22T11:21:49;10.77;;;7.03;;
28623;SDS011;15813;46.932;19.658;2023-06-22T11:24:15;11.40;;;6.93;;
28623;SDS011;15813;46.932;19.658;2023-06-22T11:26:41;9.20;;;6.82;;
28623;SDS011;15813;46.932;19.658;2023-06-22T11:29:06;8.20;;;6.00;;
28623;SDS011;15813;46.932;19.658;2023-06-22T11:31:33;7.63;;;5.60;;
28623;SDS011;15813;46.932;19.658;2023-06-22T11:33:59;9.80;;;6.22;;
28623;SDS011;15813;46.932;19.658;2023-06-22T11:36:24;11.98;;;7.22;;
28623;SDS011;15813;46.932;19.658;2023-06-22T11:38:50;13.40;;;6.47;;
28623;SDS011;15813;46.932;19.658;2023-06-22T11:41:15;10.98;;;7.03;;
28623;SDS011;15813;46.932;19.658;2023-06-22T11:43:40;10.07;;;7.57;;
28623;SDS011;15813;46.932;19.658;2023-06-22T11:46:06;9.18;;;6.63;;
28623;SDS011;15813;46.932;19.658;2023-06-22T11:48:31;11.20;;;6.25;;
28623;SDS011;15813;46.932;19.658;2023-06-22T11:50:57;9.25;;;5.68;;
28623;SDS011;15813;46.932;19.658;2023-06-22T11:53:23;8.23;;;6.40;;
28623;SDS011;15813;46.932;19.658;2023-06-22T11:55:49;11.45;;;6.35;;
28623;SDS011;15813;46.932;19.658;2023-06-22T11:58:14;9.90;;;6.88;;
28623;SDS011;15813;46.932;19.658;2023-06-22T12:00:39;8.47;;;6.60;;
28623;SDS011;15813;46.932;19.658;2023-06-22T12:03:05;12.27;;;6.50;;
28623;SDS011;15813;46.932;19.658;2023-06-22T12:05:30;10.63;;;6.03;;
28623;SDS011;15813;46.932;19.658;2023-06-22T12:07:55;12.20;;;6.20;;
28623;SDS011;15813;46.932;19.658;2023-06-22T12:10:21;8.98;;;6.38;;
28623;SDS011;15813;46.932;19.658;2023-06-22T12:12:47;9.82;;;6.57;;
28623;SDS011;15813;46.932;19.658;2023-06-22T12:15:12;10.67;;;6.97;;
28623;SDS011;15813;46.932;19.658;2023-06-22T12:17:37;13.45;;;7.15;;
28623;SDS011;15813;46.932;19.658;2023-06-22T12:20:03;10.57;;;6.93;;
28623;SDS011;15813;46.932;19.658;2023-06-22T12:22:33;10.32;;;6.70;;
28623;SDS011;15813;46.932;19.658;2023-06-22T12:24:58;13.20;;;6.25;;
28623;SDS011;15813;46.932;19.658;2023-06-22T12:27:24;11.47;;;6.70;;
28623;SDS011;15813;46.932;19.658;2023-06-22T12:29:49;12.73;;;6.93;;
28623;SDS011;15813;46.932;19.658;2023-06-22T12:32:15;16.10;;;6.60;;
28623;SDS011;15813;46.932;19.658;2023-06-22T12:34:41;11.63;;;6.63;;
28623;SDS011;15813;46.932;19.658;2023-06-22T12:37:07;11.48;;;6.75;;
28623;SDS011;15813;46.932;19.658;2023-06-22T12:39:33;16.88;;;6.75;;
28623;SDS011;15813;46.932;19.658;2023-06-22T12:41:58;11.77;;;7.03;;
28623;SDS011;15813;46.932;19.658;2023-06-22T12:44:23;17.60;;;5.73;;
28623;SDS011;15813;46.932;19.658;2023-06-22T12:46:49;17.83;;;6.60;;
28623;SDS011;15813;46.932;19.658;2023-06-22T12:49:14;13.23;;;6.28;;
28623;SDS011;15813;46.932;19.658;2023-06-22T12:51:40;12.97;;;6.60;;
28623;SDS011;15813;46.932;19.658;2023-06-22T12:54:06;9.80;;;6.60;;
28623;SDS011;15813;46.932;19.658;2023-06-22T12:56:31;11.10;;;5.83;;
28623;SDS011;15813;46.932;19.658;2023-06-22T12:58:57;11.02;;;6.80;;
28623;SDS011;15813;46.932;19.658;2023-06-22T13:01:22;12.37;;;6.70;;
28623;SDS011;15813;46.932;19.658;2023-06-22T13:03:48;14.20;;;6.80;;
28623;SDS011;15813;46.932;19.658;2023-06-22T13:06:13;15.87;;;6.90;;
28623;SDS011;15813;46.932;19.658;2023-06-22T13:08:38;14.27;;;6.27;;
28623;SDS011;15813;46.932;19.658;2023-06-22T13:11:04;16.52;;;6.63;;
28623;SDS011;15813;46.932;19.658;2023-06-22T13:13:29;11.18;;;7.10;;
28623;SDS011;15813;46.932;19.658;2023-06-22T13:15:54;15.57;;;7.55;;
28623;SDS011;15813;46.932;19.658;2023-06-22T13:18:19;14.23;;;7.35;;
28623;SDS011;15813;46.932;19.658;2023-06-22T13:20:45;15.63;;;6.23;;
28623;SDS011;15813;46.932;19.658;2023-06-22T13:23:10;10.15;;;7.25;;
28623;SDS011;15813;46.932;19.658;2023-06-22T13:25:36;13.43;;;7.00;;
28623;SDS011;15813;46.932;19.658;2023-06-22T13:28:01;12.37;;;7.57;;
28623;SDS011;15813;46.932;19.658;2023-06-22T13:30:26;9.67;;;6.37;;
28623;SDS011;15813;46.932;19.658;2023-06-22T13:32:51;10.10;;;7.37;;
28623;SDS011;15813;46.932;19.658;2023-06-22T13:35:17;9.47;;;7.10;;
28623;SDS011;15813;46.932;19.658;2023-06-22T13:37:42;8.73;;;7.07;;
28623;SDS011;15813;46.932;19.658;2023-06-22T13:40:07;11.43;;;7.00;;
28623;SDS011;15813;46.932;19.658;2023-06-22T13:42:33;10.93;;;7.22;;
28623;SDS011;15813;46.932;19.658;2023-06-22T13:44:58;13.73;;;7.63;;
28623;SDS011;15813;46.932;19.658;2023-06-22T13:47:24;9.87;;;7.20;;
28623;SDS011;15813;46.932;19.658;2023-06-22T13:49:49;11.17;;;7.60;;
28623;SDS011;15813;46.932;19.658;2023-06-22T13:52:14;11.03;;;7.10;;
28623;SDS011;15813;46.932;19.658;2023-06-22T13:54:40;13.83;;;7.67;;
28623;SDS011;15813;46.932;19.658;2023-06-22T13:57:05;10.87;;;7.50;;
28623;SDS011;15813;46.932;19.658;2023-06-22T13:59:31;16.50;;;7.97;;
28623;SDS011;15813;46.932;19.658;2023-06-22T14:01:56;12.47;;;6.57;;
28623;SDS011;15813;46.932;19.658;2023-06-22T14:04:23;12.40;;;7.45;;
28623;SDS011;15813;46.932;19.658;2023-06-22T14:06:48;9.57;;;7.03;;
28623;SDS011;15813;46.932;19.658;2023-06-22T14:09:13;12.80;;;7.50;;
28623;SDS011;15813;46.932;19.658;2023-06-22T14:11:38;16.30;;;7.88;;
28623;SDS011;15813;46.932;19.658;2023-06-22T14:14:04;10.93;;;7.03;;
28623;SDS011;15813;46.932;19.658;2023-06-22T14:16:29;15.00;;;7.90;;
28623;SDS011;15813;46.932;19.658;2023-06-22T14:18:54;12.83;;;7.60;;
28623;SDS011;15813;46.932;19.658;2023-06-22T14:21:20;12.07;;;7.53;;
28623;SDS011;15813;46.932;19.658;2023-06-22T14:23:45;14.10;;;8.53;;
28623;SDS011;15813;46.932;19.658;2023-06-22T14:26:14;13.57;;;7.68;;
28623;SDS011;15813;46.932;19.658;2023-06-22T14:28:39;8.57;;;7.55;;